createdAt,value
2018-03-01T00:00:00.711Z,-4.10
2018-03-01T00:02:29.685Z,-4.10
2018-03-01T00:04:57.124Z,-4.10
2018-03-01T00:07:25.661Z,-4.00
2018-03-01T00:09:53.155Z,-4.00
2018-03-01T00:12:20.703Z,-4.10
2018-03-01T00:14:48.860Z,-4.10
2018-03-01T00:17:16.383Z,-4.10
2018-03-01T00:19:44.182Z,-4.10
2018-03-01T00:22:12.018Z,-4.10
2018-03-01T00:24:40.264Z,-4.10
2018-03-01T00:27:08.041Z,-4.10
2018-03-01T00:29:36.530Z,-4.10
2018-03-01T00:32:04.242Z,-4.10
2018-03-01T00:34:33.012Z,-4.10
2018-03-01T00:37:06.461Z,-4.10
2018-03-01T00:39:35.461Z,-4.10
2018-03-01T00:42:02.964Z,-4.20
2018-03-01T00:44:31.357Z,-4.20
2018-03-01T00:46:59.773Z,-4.20
2018-03-01T00:49:27.288Z,-4.20
2018-03-01T00:51:56.817Z,-4.20
2018-03-01T00:54:26.934Z,-4.20
2018-03-01T00:59:32.000Z,-4.20
2018-03-01T01:02:01.238Z,-4.20
2018-03-01T01:04:36.831Z,-4.20
2018-03-01T01:07:11.200Z,-4.20
2018-03-01T01:09:42.513Z,-4.20
2018-03-01T01:12:11.941Z,-4.20
2018-03-01T01:14:44.285Z,-4.20
2018-03-01T01:17:19.063Z,-4.20
2018-03-01T01:19:50.707Z,-4.20
2018-03-01T01:22:22.351Z,-4.30
2018-03-01T01:24:53.347Z,-4.30
2018-03-01T01:27:20.889Z,-4.20
2018-03-01T01:29:49.214Z,-4.10
2018-03-01T01:32:16.874Z,-4.10
2018-03-01T01:34:46.061Z,-4.10
2018-03-01T01:37:13.862Z,-4.10
2018-03-01T01:39:43.614Z,-4.10
2018-03-01T01:42:16.201Z,-4.10
2018-03-01T01:44:44.091Z,-4.10
2018-03-01T01:47:18.205Z,-4.10
2018-03-01T01:49:50.398Z,-4.20
2018-03-01T01:52:21.605Z,-4.20
2018-03-01T01:54:51.795Z,-4.20
2018-03-01T01:57:19.521Z,-4.20
2018-03-01T01:59:48.042Z,-4.30
2018-03-01T02:02:15.485Z,-4.30
2018-03-01T02:04:42.996Z,-4.30
2018-03-01T02:07:11.366Z,-4.30
2018-03-01T02:09:40.113Z,-4.30
2018-03-01T02:12:07.568Z,-4.30
2018-03-01T02:14:35.633Z,-4.30
2018-03-01T02:17:03.106Z,-4.30
2018-03-01T02:19:31.021Z,-4.30
2018-03-01T02:21:58.574Z,-4.30
2018-03-01T02:24:26.079Z,-4.30
2018-03-01T02:26:53.599Z,-4.40
2018-03-01T02:29:21.141Z,-4.40
2018-03-01T02:31:48.606Z,-4.40
2018-03-01T02:34:16.462Z,-4.50
2018-03-01T02:36:44.230Z,-4.50
2018-03-01T02:39:12.504Z,-4.50
2018-03-01T02:41:40.091Z,-4.50
2018-03-01T02:44:07.679Z,-4.50
2018-03-01T02:46:35.236Z,-4.50
2018-03-01T02:49:02.848Z,-4.60
2018-03-01T02:51:31.104Z,-4.50
2018-03-01T02:53:58.688Z,-4.50
2018-03-01T02:56:26.663Z,-4.50
2018-03-01T02:58:54.422Z,-4.60
2018-03-01T03:01:22.740Z,-4.60
2018-03-01T03:03:50.355Z,-4.60
2018-03-01T03:06:18.970Z,-4.60
2018-03-01T03:08:46.699Z,-4.60
2018-03-01T03:11:14.401Z,-4.60
2018-03-01T03:13:41.934Z,-4.60
2018-03-01T03:16:10.957Z,-4.60
2018-03-01T03:18:41.900Z,-4.60
2018-03-01T03:21:11.314Z,-4.60
2018-03-01T03:23:38.788Z,-4.60
2018-03-01T03:26:06.248Z,-4.60
2018-03-01T03:28:34.067Z,-4.60
2018-03-01T03:31:01.588Z,-4.60
2018-03-01T03:33:29.094Z,-4.50
2018-03-01T03:35:56.890Z,-4.50
2018-03-01T03:38:24.361Z,-4.50
2018-03-01T03:40:52.125Z,-4.50
2018-03-01T03:43:19.634Z,-4.50
2018-03-01T03:45:47.106Z,-4.60
2018-03-01T03:48:14.577Z,-4.70
2018-03-01T03:50:42.450Z,-4.70
2018-03-01T03:53:09.929Z,-4.70
2018-03-01T03:55:38.485Z,-4.70
2018-03-01T03:58:06.314Z,-4.70
2018-03-01T04:00:33.775Z,-4.70
2018-03-01T04:03:01.327Z,-4.70
2018-03-01T04:05:28.790Z,-4.70
2018-03-01T04:07:56.256Z,-4.70
2018-03-01T04:10:23.707Z,-4.70
2018-03-01T04:12:51.256Z,-4.60
2018-03-01T04:15:19.326Z,-4.60
2018-03-01T04:17:46.783Z,-4.60
2018-03-01T04:20:14.894Z,-4.60
2018-03-01T04:22:42.333Z,-4.60
2018-03-01T04:25:10.013Z,-4.60
2018-03-01T04:27:37.880Z,-4.60
2018-03-01T04:30:05.549Z,-4.60
2018-03-01T04:32:32.996Z,-4.60
2018-03-01T04:35:00.997Z,-4.60
2018-03-01T04:37:29.215Z,-4.60
2018-03-01T04:39:56.999Z,-4.60
2018-03-01T04:42:24.973Z,-4.60
2018-03-01T04:44:52.623Z,-4.60
2018-03-01T04:47:20.065Z,-4.60
2018-03-01T04:49:47.542Z,-4.60
2018-03-01T04:52:15.206Z,-4.60
2018-03-01T04:54:43.104Z,-4.60
2018-03-01T04:57:11.539Z,-4.70
2018-03-01T04:59:38.993Z,-4.70
2018-03-01T05:02:06.471Z,-4.70
2018-03-01T05:04:33.926Z,-4.70
2018-03-01T05:07:01.396Z,-4.70
2018-03-01T05:09:28.877Z,-4.70
2018-03-01T05:11:56.690Z,-4.70
2018-03-01T05:14:24.181Z,-4.70
2018-03-01T05:16:51.926Z,-4.70
2018-03-01T05:19:19.462Z,-4.70
2018-03-01T05:21:47.332Z,-4.70
2018-03-01T05:24:14.857Z,-4.70
2018-03-01T05:26:43.218Z,-4.70
2018-03-01T05:29:11.989Z,-4.70
2018-03-01T05:31:39.504Z,-4.70
2018-03-01T05:34:07.283Z,-4.70
2018-03-01T05:36:36.084Z,-4.70
2018-03-01T05:39:03.623Z,-4.70
2018-03-01T05:41:31.505Z,-4.70
2018-03-01T05:43:58.945Z,-4.70
2018-03-01T05:46:26.401Z,-4.70
2018-03-01T05:48:53.982Z,-4.70
2018-03-01T05:51:21.436Z,-4.70
2018-03-01T05:53:48.995Z,-4.70
2018-03-01T05:56:17.004Z,-4.70
2018-03-01T05:58:44.612Z,-4.70
2018-03-01T06:01:12.070Z,-4.70
2018-03-01T06:03:39.529Z,-4.80
2018-03-01T06:06:07.036Z,-4.80
2018-03-01T06:08:34.608Z,-4.80
2018-03-01T06:11:02.052Z,-4.70
2018-03-01T06:13:30.062Z,-4.70
2018-03-01T06:15:57.840Z,-4.70
2018-03-01T06:18:25.313Z,-4.70
2018-03-01T06:20:53.940Z,-4.60
2018-03-01T06:23:21.417Z,-4.60
2018-03-01T06:25:48.867Z,-4.60
2018-03-01T06:28:17.550Z,-4.60
2018-03-01T06:30:44.984Z,-4.50
2018-03-01T06:33:12.481Z,-4.50
2018-03-01T06:35:40.560Z,-4.50
2018-03-01T06:38:08.041Z,-4.50
2018-03-01T06:40:36.045Z,-4.40
2018-03-01T06:43:03.649Z,-4.40
2018-03-01T06:45:31.087Z,-4.40
2018-03-01T06:47:58.546Z,-4.50
2018-03-01T06:50:26.148Z,-4.40
2018-03-01T06:52:54.398Z,-4.40
2018-03-01T06:55:22.452Z,-4.40
2018-03-01T06:57:50.284Z,-4.50
2018-03-01T07:00:17.732Z,-4.50
2018-03-01T07:02:45.176Z,-4.50
2018-03-01T07:05:13.522Z,-4.60
2018-03-01T07:07:41.009Z,-4.50
2018-03-01T07:10:09.221Z,-4.50
2018-03-01T07:12:37.861Z,-4.50
2018-03-01T07:15:06.066Z,-4.50
2018-03-01T07:17:34.175Z,-4.50
2018-03-01T07:20:01.622Z,-4.50
2018-03-01T07:22:29.568Z,-4.50
2018-03-01T07:24:57.566Z,-4.50
2018-03-01T07:27:25.301Z,-4.40
2018-03-01T07:29:52.753Z,-4.40
2018-03-01T07:32:20.310Z,-4.40
2018-03-01T07:34:48.327Z,-4.40
2018-03-01T07:37:15.800Z,-4.50
2018-03-01T07:39:43.753Z,-4.50
2018-03-01T07:42:11.268Z,-4.50
2018-03-01T07:44:38.728Z,-4.50
2018-03-01T07:47:06.178Z,-4.50
2018-03-01T07:49:33.778Z,-4.50
2018-03-01T07:52:01.226Z,-4.40
2018-03-01T07:54:28.786Z,-4.40
2018-03-01T07:56:56.885Z,-4.40
2018-03-01T07:59:25.343Z,-4.30
2018-03-01T08:01:52.788Z,-4.30
2018-03-01T08:04:20.350Z,-4.30
2018-03-01T08:06:47.876Z,-4.20
2018-03-01T08:09:15.580Z,-4.20
2018-03-01T08:11:43.070Z,-4.10
2018-03-01T08:14:11.548Z,-4.00
2018-03-01T08:16:40.379Z,-4.00
2018-03-01T08:19:07.825Z,-4.00
2018-03-01T08:21:35.725Z,-4.00
2018-03-01T08:24:03.161Z,-4.00
2018-03-01T08:30:01.826Z,-3.90
2018-03-01T08:32:30.082Z,-3.80
2018-03-01T08:34:59.052Z,-3.80
2018-03-01T08:37:26.616Z,-3.80
2018-03-01T08:39:54.474Z,-3.70
2018-03-01T08:42:21.917Z,-3.70
2018-03-01T08:44:49.383Z,-3.50
2018-03-01T08:47:17.304Z,-3.40
2018-03-01T08:49:44.777Z,-3.30
2018-03-01T08:52:12.236Z,-3.30
2018-03-01T08:54:40.409Z,-3.30
2018-03-01T08:57:07.864Z,-3.20
2018-03-01T08:59:35.369Z,-3.20
2018-03-01T09:02:03.154Z,-3.10
2018-03-01T09:04:31.393Z,-3.00
2018-03-01T09:06:58.842Z,-3.00
2018-03-01T09:09:26.306Z,-2.80
2018-03-01T09:11:53.878Z,-2.80
2018-03-01T09:14:21.394Z,-2.70
2018-03-01T09:16:49.597Z,-2.60
2018-03-01T09:19:17.068Z,-2.40
2018-03-01T09:21:44.819Z,-2.30
2018-03-01T09:24:12.861Z,-2.10
2018-03-01T09:26:40.316Z,-2.10
2018-03-01T09:29:07.816Z,-2.00
2018-03-01T09:31:35.568Z,-1.90
2018-03-01T09:34:03.532Z,-1.80
2018-03-01T09:36:31.221Z,-1.80
2018-03-01T09:38:59.540Z,-1.70
2018-03-01T09:41:27.633Z,-1.70
2018-03-01T09:43:55.156Z,-1.60
2018-03-01T09:46:23.209Z,-1.60
2018-03-01T09:48:51.733Z,-1.50
2018-03-01T09:51:19.206Z,-1.50
2018-03-01T09:53:46.680Z,-1.40
2018-03-01T09:56:14.898Z,-1.40
2018-03-01T09:58:42.346Z,-1.30
2018-03-01T10:01:09.853Z,-1.20
2018-03-01T10:03:37.329Z,-1.10
2018-03-01T10:06:05.257Z,-1.10
2018-03-01T10:08:33.532Z,-0.80
2018-03-01T10:11:01.746Z,-0.70
2018-03-01T10:13:29.220Z,-0.70
2018-03-01T10:15:56.708Z,-0.70
2018-03-01T10:18:25.466Z,-0.40
2018-03-01T10:20:52.941Z,-0.40
2018-03-01T10:23:20.591Z,-0.30
2018-03-01T10:25:48.087Z,-0.30
2018-03-01T10:28:16.298Z,0.00
2018-03-01T10:30:43.971Z,0.00
2018-03-01T10:33:11.754Z,0.10
2018-03-01T10:35:39.522Z,0.30
2018-03-01T10:38:07.754Z,0.50
2018-03-01T10:40:35.667Z,0.40
2018-03-01T10:43:04.969Z,0.60
2018-03-01T10:45:32.822Z,0.60
2018-03-01T10:48:00.341Z,0.70
2018-03-01T10:50:27.846Z,0.80
2018-03-01T10:52:55.702Z,0.90
2018-03-01T10:55:23.581Z,0.90
2018-03-01T10:57:51.846Z,1.10
2018-03-01T11:00:25.089Z,1.10
2018-03-01T11:02:52.793Z,1.30
2018-03-01T11:05:20.234Z,1.40
2018-03-01T11:07:48.206Z,1.50
2018-03-01T11:10:15.781Z,1.60
2018-03-01T11:12:43.248Z,1.60
2018-03-01T11:15:11.527Z,1.80
2018-03-01T11:17:39.472Z,1.80
2018-03-01T11:20:06.945Z,1.90
2018-03-01T11:22:34.866Z,2.10
2018-03-01T11:25:02.351Z,2.30
2018-03-01T11:27:29.800Z,2.30
2018-03-01T11:29:57.852Z,2.50
2018-03-01T11:32:25.887Z,2.70
2018-03-01T11:34:54.761Z,2.90
2018-03-01T11:37:22.222Z,2.90
2018-03-01T11:39:50.790Z,3.10
2018-03-01T11:42:18.266Z,3.10
2018-03-01T11:44:46.469Z,3.30
2018-03-01T11:47:13.941Z,3.30
2018-03-01T11:49:41.860Z,3.40
2018-03-01T11:52:09.509Z,3.40
2018-03-01T11:54:37.674Z,3.50
2018-03-01T11:57:05.151Z,3.50
2018-03-01T11:59:33.158Z,3.60
2018-03-01T12:02:00.654Z,3.60
2018-03-01T12:04:28.633Z,3.80
2018-03-01T12:06:56.486Z,3.90
2018-03-01T12:09:23.954Z,3.90
2018-03-01T12:11:51.402Z,3.90
2018-03-01T12:14:18.900Z,3.90
2018-03-01T12:16:47.193Z,4.10
2018-03-01T12:19:15.104Z,4.10
2018-03-01T12:21:44.001Z,4.20
2018-03-01T12:24:13.053Z,4.50
2018-03-01T12:26:40.844Z,4.50
2018-03-01T12:29:08.285Z,4.70
2018-03-01T12:31:36.101Z,4.80
2018-03-01T12:34:03.920Z,4.90
2018-03-01T12:36:31.700Z,5.00
2018-03-01T12:38:59.152Z,5.10
2018-03-01T12:41:27.017Z,5.10
2018-03-01T12:43:54.480Z,5.20
2018-03-01T12:46:21.943Z,5.20
2018-03-01T12:48:49.379Z,5.20
2018-03-01T12:51:16.840Z,5.30
2018-03-01T12:53:44.297Z,5.30
2018-03-01T12:56:12.176Z,5.30
2018-03-01T12:58:40.158Z,5.30
2018-03-01T13:01:07.624Z,5.40
2018-03-01T13:03:35.909Z,5.40
2018-03-01T13:06:04.180Z,5.40
2018-03-01T13:08:31.681Z,5.40
2018-03-01T13:11:00.361Z,5.20
2018-03-01T13:13:28.361Z,5.20
2018-03-01T13:15:55.833Z,5.00
2018-03-01T13:18:23.744Z,4.90
2018-03-01T13:20:51.230Z,4.70
2018-03-01T13:23:19.228Z,4.70
2018-03-01T13:25:46.673Z,4.80
2018-03-01T13:28:14.843Z,4.80
2018-03-01T13:30:43.831Z,4.80
2018-03-01T13:33:15.926Z,4.90
2018-03-01T13:35:43.927Z,5.00
2018-03-01T13:38:11.361Z,4.90
2018-03-01T13:40:40.015Z,4.60
2018-03-01T13:43:07.485Z,4.60
2018-03-01T13:45:38.896Z,4.50
2018-03-01T13:48:06.452Z,4.30
2018-03-01T13:50:34.600Z,4.10
2018-03-01T13:53:02.073Z,4.10
2018-03-01T13:55:35.472Z,4.10
2018-03-01T13:58:02.939Z,4.10
2018-03-01T14:00:30.696Z,4.10
2018-03-01T14:02:58.804Z,4.20
2018-03-01T14:05:26.278Z,4.20
2018-03-01T14:07:57.473Z,4.50
2018-03-01T14:10:24.961Z,4.50
2018-03-01T14:12:58.209Z,4.70
2018-03-01T14:15:25.807Z,4.80
2018-03-01T14:17:59.744Z,4.90
2018-03-01T14:20:33.926Z,5.20
2018-03-01T14:23:08.110Z,5.20
2018-03-01T14:25:36.240Z,5.40
2018-03-01T14:28:12.116Z,5.80
2018-03-01T14:30:39.667Z,5.80
2018-03-01T14:33:07.891Z,6.00
2018-03-01T14:35:35.880Z,6.00
2018-03-01T14:38:03.341Z,5.90
2018-03-01T14:40:31.360Z,5.90
2018-03-01T14:42:58.793Z,5.70
2018-03-01T14:45:26.255Z,5.70
2018-03-01T14:47:53.748Z,5.70
2018-03-01T14:50:21.210Z,5.60
2018-03-01T14:52:48.773Z,5.40
2018-03-01T14:55:16.791Z,5.20
2018-03-01T14:57:45.455Z,5.00
2018-03-01T15:00:13.652Z,5.10
2018-03-01T15:02:41.172Z,5.10
2018-03-01T15:05:08.694Z,5.20
2018-03-01T15:07:36.151Z,5.30
2018-03-01T15:10:03.752Z,5.40
2018-03-01T15:12:31.251Z,5.40
2018-03-01T15:14:58.741Z,5.30
2018-03-01T15:17:26.204Z,5.10
2018-03-01T15:19:54.072Z,4.90
2018-03-01T15:22:21.980Z,4.80
2018-03-01T15:24:50.262Z,4.70
2018-03-01T15:27:18.078Z,4.70
2018-03-01T15:29:46.397Z,4.40
2018-03-01T15:32:14.809Z,4.30
2018-03-01T15:34:43.637Z,4.20
2018-03-01T15:37:11.089Z,4.20
2018-03-01T15:39:38.862Z,4.30
2018-03-01T15:42:06.338Z,4.30
2018-03-01T15:44:34.596Z,4.20
2018-03-01T15:47:02.542Z,4.10
2018-03-01T15:49:29.994Z,4.10
2018-03-01T15:51:57.435Z,4.10
2018-03-01T15:54:25.610Z,4.20
2018-03-01T15:56:53.281Z,4.30
2018-03-01T15:59:21.500Z,4.30
2018-03-01T16:01:49.857Z,4.10
2018-03-01T16:04:17.304Z,4.20
2018-03-01T16:06:45.091Z,4.00
2018-03-01T16:09:12.533Z,3.80
2018-03-01T16:11:39.979Z,3.70
2018-03-01T16:14:07.521Z,3.50
2018-03-01T16:16:34.962Z,3.40
2018-03-01T16:19:03.105Z,3.20
2018-03-01T16:21:30.560Z,3.10
2018-03-01T16:23:58.980Z,2.90
2018-03-01T16:26:26.427Z,2.90
2018-03-01T16:28:54.230Z,2.80
2018-03-01T16:31:22.055Z,2.60
2018-03-01T16:33:49.954Z,2.50
2018-03-01T16:36:17.920Z,2.40
2018-03-01T16:38:45.404Z,2.30
2018-03-01T16:41:13.867Z,2.00
2018-03-01T16:43:41.342Z,1.90
2018-03-01T16:46:09.902Z,1.60
2018-03-01T16:48:37.424Z,1.60
2018-03-01T16:51:04.984Z,1.50
2018-03-01T16:53:32.473Z,1.30
2018-03-01T16:56:00.260Z,1.20
2018-03-01T16:58:28.498Z,1.00
2018-03-01T17:00:56.036Z,1.00
2018-03-01T17:03:23.743Z,1.00
2018-03-01T17:05:51.234Z,0.90
2018-03-01T17:08:18.717Z,0.90
2018-03-01T17:10:46.258Z,1.00
2018-03-01T17:13:13.744Z,1.10
2018-03-01T17:15:43.170Z,0.90
2018-03-01T17:18:10.621Z,0.90
2018-03-01T17:20:38.303Z,0.90
2018-03-01T17:23:06.984Z,1.00
2018-03-01T17:25:35.059Z,0.90
2018-03-01T17:28:02.535Z,0.90
2018-03-01T17:30:30.778Z,0.70
2018-03-01T17:32:58.980Z,0.60
2018-03-01T17:35:26.917Z,0.60
2018-03-01T17:37:54.435Z,0.60
2018-03-01T17:40:22.432Z,0.60
2018-03-01T17:42:50.205Z,0.70
2018-03-01T17:45:17.665Z,0.60
2018-03-01T17:47:45.121Z,0.60
2018-03-01T17:50:12.667Z,0.60
2018-03-01T17:52:40.125Z,0.60
2018-03-01T17:55:07.925Z,0.50
2018-03-01T17:57:35.374Z,0.50
2018-03-01T18:00:04.044Z,0.30
2018-03-01T18:02:31.509Z,0.30
2018-03-01T18:04:59.737Z,0.30
2018-03-01T18:07:27.449Z,0.30
2018-03-01T18:09:54.938Z,0.30
2018-03-01T18:12:22.512Z,0.30
2018-03-01T18:14:50.755Z,0.30
2018-03-01T18:17:18.958Z,0.20
2018-03-01T18:19:47.466Z,0.20
2018-03-01T18:22:14.902Z,0.20
2018-03-01T18:24:42.734Z,0.20
2018-03-01T18:27:10.979Z,0.10
2018-03-01T18:29:38.461Z,0.10
2018-03-01T18:32:06.722Z,0.10
2018-03-01T18:34:34.949Z,0.00
2018-03-01T18:37:02.359Z,0.10
2018-03-01T18:39:31.256Z,-0.10
2018-03-01T18:41:59.524Z,-0.10
2018-03-01T18:44:26.996Z,-0.10
2018-03-01T18:46:55.242Z,-0.20
2018-03-01T18:49:22.697Z,-0.20
2018-03-01T18:51:50.176Z,-0.20
2018-03-01T18:54:18.825Z,-0.30
2018-03-01T18:56:47.339Z,-0.40
2018-03-01T18:59:15.561Z,-0.40
2018-03-01T19:01:43.011Z,-0.40
2018-03-01T19:04:10.717Z,-0.50
2018-03-01T19:06:38.200Z,-0.50
2018-03-01T19:09:06.509Z,-0.50
2018-03-01T19:11:33.994Z,-0.60
2018-03-01T19:14:01.868Z,-0.60
2018-03-01T19:16:29.335Z,-0.60
2018-03-01T19:18:56.842Z,-0.60
2018-03-01T19:21:24.649Z,-0.60
2018-03-01T19:23:52.848Z,-0.70
2018-03-01T19:26:21.155Z,-0.70
2018-03-01T19:28:48.813Z,-0.70
2018-03-01T19:31:16.282Z,-0.70
2018-03-01T19:33:44.261Z,-0.70
2018-03-01T19:36:12.275Z,-0.70
2018-03-01T19:38:40.505Z,-0.80
2018-03-01T19:41:09.434Z,-0.80
2018-03-01T19:43:36.994Z,-0.90
2018-03-01T19:46:04.492Z,-1.00
2018-03-01T19:48:31.968Z,-1.00
2018-03-01T19:50:59.519Z,-1.00
2018-03-01T19:53:27.009Z,-1.10
2018-03-01T19:55:54.787Z,-1.10
2018-03-01T19:58:23.619Z,-1.10
2018-03-01T20:00:51.233Z,-1.10
2018-03-01T20:03:19.496Z,-1.10
2018-03-01T20:05:46.936Z,-1.10
2018-03-01T20:08:14.456Z,-1.10
2018-03-01T20:10:41.913Z,-1.10
2018-03-01T20:13:09.536Z,-1.10
2018-03-01T20:15:37.026Z,-1.10
2018-03-01T20:18:04.587Z,-1.10
2018-03-01T20:20:32.596Z,-1.10
2018-03-01T20:23:00.505Z,-1.10
2018-03-01T20:25:28.959Z,-1.10
2018-03-01T20:27:56.853Z,-1.10
2018-03-01T20:30:25.059Z,-1.20
2018-03-01T20:32:52.545Z,-1.20
2018-03-01T20:35:20.376Z,-1.20
2018-03-01T20:37:47.878Z,-1.20
2018-03-01T20:40:17.273Z,-1.30
2018-03-01T20:42:44.958Z,-1.30
2018-03-01T20:45:12.435Z,-1.30
2018-03-01T20:47:41.088Z,-1.40
2018-03-01T20:50:08.579Z,-1.40
2018-03-01T20:52:36.512Z,-1.40
2018-03-01T20:55:04.438Z,-1.40
2018-03-01T20:57:31.883Z,-1.40
2018-03-01T21:00:00.449Z,-1.40
2018-03-01T21:02:27.914Z,-1.40
2018-03-01T21:04:55.777Z,-1.40
2018-03-01T21:07:23.225Z,-1.40
2018-03-01T21:09:50.914Z,-1.40
2018-03-01T21:12:18.525Z,-1.40
2018-03-01T21:14:46.226Z,-1.40
2018-03-01T21:17:13.693Z,-1.50
2018-03-01T21:19:41.295Z,-1.50
2018-03-01T21:22:09.165Z,-1.50
2018-03-01T21:24:36.734Z,-1.50
2018-03-01T21:27:06.197Z,-1.50
2018-03-01T21:29:33.644Z,-1.50
2018-03-01T21:32:01.303Z,-1.40
2018-03-01T21:34:29.184Z,-1.60
2018-03-01T21:36:57.445Z,-1.60
2018-03-01T21:39:26.429Z,-1.50
2018-03-01T21:41:53.901Z,-1.50
2018-03-01T21:44:21.375Z,-1.40
2018-03-01T21:47:01.967Z,-1.40
2018-03-01T21:49:29.410Z,-1.40
2018-03-01T21:51:57.082Z,-1.50
2018-03-01T21:54:24.906Z,-1.50
2018-03-01T21:56:53.157Z,-1.50
2018-03-01T21:59:20.734Z,-1.50
2018-03-01T22:01:48.189Z,-1.60
2018-03-01T22:04:16.489Z,-1.60
2018-03-01T22:06:44.708Z,-1.70
2018-03-01T22:09:13.021Z,-1.70
2018-03-01T22:11:40.666Z,-1.60
2018-03-01T22:14:08.153Z,-1.70
2018-03-01T22:16:36.480Z,-1.70
2018-03-01T22:19:04.662Z,-1.80
2018-03-01T22:21:32.752Z,-1.90
2018-03-01T22:24:00.227Z,-1.90
2018-03-01T22:26:28.204Z,-1.90
2018-03-01T22:28:56.831Z,-2.00
2018-03-01T22:31:24.318Z,-2.00
2018-03-01T22:33:52.729Z,-2.00
2018-03-01T22:36:22.122Z,-2.00
2018-03-01T22:38:50.146Z,-2.00
2018-03-01T22:41:18.161Z,-2.00
2018-03-01T22:43:45.673Z,-2.00
2018-03-01T22:46:13.115Z,-1.90
2018-03-01T22:48:40.575Z,-2.00
2018-03-01T22:51:08.145Z,-2.00
2018-03-01T22:53:35.707Z,-2.00
2018-03-01T22:56:03.784Z,-2.00
2018-03-01T22:58:31.245Z,-2.00
2018-03-01T23:00:59.552Z,-2.10
2018-03-01T23:03:27.075Z,-2.10
2018-03-01T23:05:54.911Z,-2.10
2018-03-01T23:08:22.384Z,-2.10
2018-03-01T23:10:50.482Z,-2.10
2018-03-01T23:13:18.222Z,-2.10
2018-03-01T23:15:45.692Z,-2.10
2018-03-01T23:18:13.174Z,-2.10
2018-03-01T23:20:40.668Z,-2.10
2018-03-01T23:23:08.503Z,-2.10
2018-03-01T23:25:36.464Z,-2.20
2018-03-01T23:28:04.300Z,-2.20
2018-03-01T23:30:31.841Z,-2.10
2018-03-01T23:32:59.324Z,-2.10
2018-03-01T23:35:27.164Z,-2.00
2018-03-01T23:37:55.441Z,-1.90
2018-03-01T23:40:24.142Z,-2.00
2018-03-01T23:42:51.585Z,-2.00
2018-03-01T23:45:19.824Z,-2.00
2018-03-01T23:47:47.332Z,-2.00
2018-03-01T23:50:15.646Z,-2.10
2018-03-01T23:52:43.329Z,-2.10
2018-03-01T23:55:11.614Z,-2.20
2018-03-01T23:57:40.608Z,-2.20
